KBAF/BAF METAR and TAF weather

Enter ICAO airport designator
Station Type Date Time Source
KBAF METAR 2018/01/23 01:53 UTC NOAA

KBAF 230153Z 02005KT 10SM OVC010 02/01 A3019 RMK AO2 RAE31 SLP230 P0002 T00170011


Station Type Date Time Source
KBAF Decoded METAR 2018/01/23 01:53 UTC NOAA

WESTFIELD BARNES MUNICIPAL, MA, United States (KBAF) 42-10N 072-43W 83M
Jan 22, 2018 - 08:53 PM EST / 2018.01.23 0153 UTC
Wind: from the NNE (020 degrees) at 6 MPH (5 KT):0
Visibility: 10 mile(s):0
Sky conditions: overcast
Precipitation last hour: 0.02 inches
Temperature: 35.1 F (1.7 C)
Dew Point: 34.0 F (1.1 C)
Relative Humidity: 95%
Pressure (altimeter): 30.19 in. Hg (1022 hPa)
ob: KBAF 230153Z 02005KT 10SM OVC010 02/01 A3019 RMK AO2 RAE31 SLP230 P0002 T00170011
cycle: 2

Station Type Date Time Source
KBAF TAF 2018/01/22 18:45 UTC NOAA

TAF
AMD KBAF 221742Z 2218/2318 04003KT 2SM BR OVC008
FM222300 03004KT 2SM -SHRA OVC003
FM230200 02004KT 2SM BR OVC003
FM230800 00000KT 2SM BR OVC003 WS020/19035KT
FM231100 00000KT 1SM -SHRA OVC003 WS020/19040KT


Example: see airport list